Time;durP1;ratioP1;P1;durP2;ratioP2;P2;SDS_P1;SDS_P2;PMS_P1;PMS_P2;Temp;Humidity;BMP_temperature;BMP_pressure;BME280_temperature;BME280_humidity;BME280_pressure;Samples;Min_cycle;Max_cycle;Signal;HPM_P1;HPM_P2
2021/03/20 00:00:58;;;;;;;14.53;12.70;;;;;21.20;101658.00;;;;2077625;28;20252;-45
2021/03/20 00:01:59;;;;;;;14.65;12.68;;;;;21.20;101669.00;;;;2077897;28;20229;-45
2021/03/20 00:02:59;;;;;;;14.20;12.50;;;;;21.10;101651.00;;;;2078382;28;20313;-46
2021/03/20 00:03:59;;;;;;;13.17;11.77;;;;;21.10;101663.00;;;;2078082;28;20244;-46
2021/03/20 00:05:00;;;;;;;12.93;11.50;;;;;21.10;101659.00;;;;2078546;28;20206;-45
2021/03/20 00:06:00;;;;;;;13.17;11.80;;;;;21.10;101670.00;;;;2077262;28;21235;-46
2021/03/20 00:07:01;;;;;;;14.83;11.40;;;;;21.10;101670.00;;;;2077506;28;20598;-46
2021/03/20 00:08:01;;;;;;;12.53;11.23;;;;;21.10;101669.00;;;;2076920;28;20217;-47
2021/03/20 00:09:06;;;;;;;13.10;11.70;;;;;21.10;101671.00;;;;2076763;28;20206;-46
2021/03/20 00:10:08;;;;;;;13.07;11.68;;;;;21.10;101674.00;;;;2077415;28;20233;-46
2021/03/20 00:11:08;;;;;;;13.57;10.80;;;;;21.10;101674.00;;;;2077737;28;20214;-46
2021/03/20 00:12:09;;;;;;;12.00;10.60;;;;;21.10;101668.00;;;;2061207;28;20564;-46
2021/03/20 00:13:09;;;;;;;11.70;10.53;;;;;21.00;101673.00;;;;2061275;28;20220;-46
2021/03/20 00:14:10;;;;;;;12.97;11.00;;;;;21.10;101665.00;;;;2069587;28;20643;-47
2021/03/20 00:15:13;;;;;;;11.77;10.57;;;;;21.00;101669.00;;;;2069635;28;20231;-46
2021/03/20 00:16:13;;;;;;;11.77;10.57;;;;;21.10;101679.00;;;;2078203;28;20449;-45
2021/03/20 00:17:14;;;;;;;10.77;9.67;;;;;21.10;101673.00;;;;2078490;28;20225;-46
2021/03/20 00:18:15;;;;;;;12.20;11.00;;;;;21.00;101679.00;;;;2077944;28;20309;-46
2021/03/20 00:19:15;;;;;;;11.30;10.20;;;;;21.00;101685.00;;;;2078399;28;20218;-46
2021/03/20 00:20:19;;;;;;;11.50;10.30;;;;;21.00;101680.00;;;;2078614;28;20301;-45
2021/03/20 00:21:19;;;;;;;11.27;10.15;;;;;21.00;101680.00;;;;2078243;28;20218;-48
2021/03/20 00:22:19;;;;;;;11.07;10.00;;;;;21.00;101681.00;;;;2078606;28;20221;-47
2021/03/20 00:23:20;;;;;;;10.83;9.83;;;;;21.00;101682.00;;;;2078387;28;20324;-46
2021/03/20 00:24:20;;;;;;;10.73;9.63;;;;;21.00;101676.00;;;;2078211;28;20217;-46
2021/03/20 00:25:21;;;;;;;10.77;9.40;;;;;21.00;101683.00;;;;2078327;28;20221;-46
2021/03/20 00:26:23;;;;;;;11.00;9.67;;;;;21.00;101674.00;;;;2078039;28;20209;-46
2021/03/20 00:27:23;;;;;;;10.40;9.40;;;;;21.00;101679.00;;;;2078104;28;20249;-46
2021/03/20 00:28:26;;;;;;;9.90;8.90;;;;;21.00;101673.00;;;;2076991;28;20214;-46
2021/03/20 00:29:26;;;;;;;11.13;10.02;;;;;21.00;101676.00;;;;2078626;28;20249;-46
2021/03/20 00:30:27;;;;;;;10.13;8.90;;;;;21.00;101678.00;;;;2086209;28;20550;-46
2021/03/20 00:31:27;;;;;;;10.03;8.97;;;;;21.00;101686.00;;;;2086252;28;20205;-46
2021/03/20 00:32:27;;;;;;;9.63;8.63;;;;;21.00;101682.00;;;;2086067;28;20217;-46
2021/03/20 00:33:28;;;;;;;10.93;9.40;;;;;20.60;101683.00;;;;2086176;28;20258;-46
2021/03/20 00:34:29;;;;;;;10.23;9.23;;;;;20.90;101682.00;;;;2086003;28;20221;-46
2021/03/20 00:35:29;;;;;;;10.33;9.20;;;;;20.90;101685.00;;;;2086163;28;20662;-46
2021/03/20 00:36:29;;;;;;;9.73;8.57;;;;;21.00;101684.00;;;;2086165;28;20493;-46
2021/03/20 00:37:30;;;;;;;8.53;7.73;;;;;20.90;101680.00;;;;2086352;28;20214;-46
2021/03/20 00:38:30;;;;;;;11.97;8.80;;;;;20.90;101682.00;;;;2081779;28;20306;-46
2021/03/20 00:39:31;;;;;;;9.90;8.90;;;;;20.90;101687.00;;;;2085679;28;20255;-46
2021/03/20 00:40:31;;;;;;;9.30;8.40;;;;;20.90;101693.00;;;;2086331;28;20312;-46
2021/03/20 00:41:32;;;;;;;8.53;7.60;;;;;20.90;101692.00;;;;2085317;28;20655;-46
2021/03/20 00:42:32;;;;;;;8.23;7.43;;;;;20.90;101689.00;;;;2086092;28;20320;-46
2021/03/20 00:43:32;;;;;;;8.73;7.83;;;;;20.90;101694.00;;;;2086051;28;20212;-46
2021/03/20 00:44:33;;;;;;;9.13;8.23;;;;;20.90;101687.00;;;;2086124;28;20213;-46
2021/03/20 00:45:33;;;;;;;8.80;7.90;;;;;20.90;101689.00;;;;2086995;28;20704;-46
2021/03/20 00:46:34;;;;;;;9.10;8.20;;;;;20.90;101690.00;;;;2086597;28;20213;-46
2021/03/20 00:47:34;;;;;;;8.50;7.50;;;;;20.90;101688.00;;;;2086835;28;20209;-46
2021/03/20 00:48:36;;;;;;;7.70;7.00;;;;;20.90;101692.00;;;;2085386;28;20232;-46
2021/03/20 00:49:36;;;;;;;7.85;6.65;;;;;20.90;101698.00;;;;2086405;28;20277;-46
2021/03/20 00:50:37;;;;;;;8.27;7.47;;;;;20.90;101687.00;;;;2086880;28;20283;-49
2021/03/20 00:51:37;;;;;;;7.90;7.10;;;;;20.80;101689.00;;;;2086868;28;20209;-46
2021/03/20 00:52:37;;;;;;;8.30;7.50;;;;;20.90;101686.00;;;;2086655;28;20210;-46
2021/03/20 00:53:38;;;;;;;8.10;7.30;;;;;20.90;101685.00;;;;2086691;28;20226;-46
2021/03/20 00:54:38;;;;;;;8.80;7.57;;;;;20.90;101697.00;;;;2085970;28;20774;-46
2021/03/20 00:55:38;;;;;;;8.27;7.47;;;;;20.80;101690.00;;;;2086208;28;20206;-46
2021/03/20 00:56:39;;;;;;;7.40;6.60;;;;;20.80;101695.00;;;;2086434;28;20260;-46
2021/03/20 00:57:39;;;;;;;7.73;6.93;;;;;20.80;101695.00;;;;2079523;28;20201;-46
2021/03/20 00:58:41;;;;;;;7.57;6.80;;;;;20.80;101701.00;;;;2076758;28;20203;-46
2021/03/20 00:59:42;;;;;;;6.68;6.03;;;;;20.80;101699.00;;;;2077875;28;20299;-45
2021/03/20 01:00:42;;;;;;;6.53;5.83;;;;;20.80;101697.00;;;;2078019;28;20214;-46
2021/03/20 01:01:42;;;;;;;8.20;6.20;;;;;20.80;101712.00;;;;2078356;28;20214;-46
2021/03/20 01:02:43;;;;;;;6.77;6.07;;;;;20.80;101712.00;;;;2078404;28;20234;-46
2021/03/20 01:03:43;;;;;;;6.97;6.27;;;;;20.80;101710.00;;;;2073582;28;20214;-46
2021/03/20 01:04:44;;;;;;;7.10;6.30;;;;;20.80;101705.00;;;;2078388;28;20233;-46
2021/03/20 01:05:44;;;;;;;7.17;6.37;;;;;20.70;101705.00;;;;2078562;28;20276;-45
2021/03/20 01:06:44;;;;;;;7.03;6.33;;;;;20.80;101704.00;;;;2078187;28;20376;-46
2021/03/20 01:07:45;;;;;;;5.80;5.30;;;;;20.80;101709.00;;;;2078555;28;20230;-46
2021/03/20 01:08:45;;;;;;;7.10;6.40;;;;;20.80;101708.00;;;;2077296;28;20217;-46
2021/03/20 01:09:46;;;;;;;6.47;5.83;;;;;20.80;101720.00;;;;2078426;28;20253;-46
2021/03/20 01:10:46;;;;;;;6.30;5.70;;;;;20.80;101713.00;;;;2078507;28;20218;-46
2021/03/20 01:11:47;;;;;;;6.30;5.70;;;;;20.80;101720.00;;;;2078228;28;20791;-46
2021/03/20 01:12:47;;;;;;;6.20;5.60;;;;;20.80;101719.00;;;;2078591;28;20598;-45
2021/03/20 01:13:47;;;;;;;5.63;5.13;;;;;20.80;101720.00;;;;2078538;28;20230;-46
2021/03/20 01:14:48;;;;;;;5.90;5.30;;;;;20.70;101720.00;;;;2078667;28;20683;-46
2021/03/20 01:15:48;;;;;;;12.00;6.13;;;;;20.70;101719.00;;;;2078721;28;20222;-46
2021/03/20 01:16:48;;;;;;;6.00;5.40;;;;;20.80;101720.00;;;;2078393;28;20289;-46
2021/03/20 01:17:49;;;;;;;5.80;4.87;;;;;20.70;101717.00;;;;2078417;28;20682;-46
2021/03/20 01:18:50;;;;;;;6.10;5.10;;;;;20.70;101721.00;;;;2077427;28;20218;-45
2021/03/20 01:19:50;;;;;;;5.33;4.83;;;;;20.70;101720.00;;;;2079407;28;20272;-46
2021/03/20 01:20:51;;;;;;;5.90;4.87;;;;;20.70;101725.00;;;;2079695;28;20242;-46
2021/03/20 01:21:51;;;;;;;4.97;4.57;;;;;20.70;101730.00;;;;2079774;28;20214;-46
2021/03/20 01:22:51;;;;;;;5.60;5.10;;;;;20.70;101711.00;;;;2079612;28;20249;-46
2021/03/20 01:23:52;;;;;;;5.53;4.90;;;;;20.70;101721.00;;;;2078709;28;20275;-46
2021/03/20 01:24:52;;;;;;;5.17;4.40;;;;;20.70;101722.00;;;;2078730;28;20707;-46
2021/03/20 01:25:52;;;;;;;4.67;4.20;;;;;20.70;101721.00;;;;2072565;28;20347;-46
2021/03/20 01:26:53;;;;;;;5.60;4.47;;;;;20.70;101724.00;;;;2087129;28;20677;-45
2021/03/20 01:27:53;;;;;;;4.67;4.23;;;;;20.70;101721.00;;;;2084063;28;20206;-46
2021/03/20 01:28:54;;;;;;;5.37;4.40;;;;;20.60;101727.00;;;;2078437;28;20218;-46
2021/03/20 01:29:54;;;;;;;5.10;4.60;;;;;20.70;101727.00;;;;2079095;28;20218;-46
2021/03/20 01:30:54;;;;;;;5.70;4.30;;;;;20.70;101729.00;;;;2079358;28;20222;-46
2021/03/20 01:31:55;;;;;;;4.80;4.40;;;;;20.60;101723.00;;;;2079239;28;20678;-45
2021/03/20 01:32:55;;;;;;;4.50;4.10;;;;;20.60;101732.00;;;;2079153;28;20245;-46
2021/03/20 01:33:55;;;;;;;5.43;4.70;;;;;20.60;101728.00;;;;2079450;28;20218;-46
2021/03/20 01:34:56;;;;;;;4.43;4.03;;;;;20.60;101731.00;;;;2072767;28;20707;-46
2021/03/20 01:35:56;;;;;;;5.03;4.53;;;;;20.60;101733.00;;;;2087060;28;20287;-46
2021/03/20 01:36:56;;;;;;;5.50;3.90;;;;;20.60;101736.00;;;;2083567;28;20221;-46
2021/03/20 01:37:57;;;;;;;4.90;4.40;;;;;20.60;101734.00;;;;2079293;28;20590;-46
2021/03/20 01:38:57;;;;;;;4.73;4.23;;;;;20.60;101734.00;;;;2077853;28;20583;-46
2021/03/20 01:39:57;;;;;;;5.33;4.73;;;;;20.60;101742.00;;;;2079306;28;20271;-46
2021/03/20 01:41:00;;;;;;;4.70;4.17;;;;;20.60;101738.00;;;;2078963;28;20225;-46
2021/03/20 01:42:05;;;;;;;5.35;4.60;;;;;20.60;101720.00;;;;2079150;28;20218;-46
2021/03/20 01:43:05;;;;;;;3.80;3.42;;;;;20.60;101723.00;;;;2078326;28;20225;-46
2021/03/20 01:44:06;;;;;;;4.83;4.40;;;;;20.60;101727.00;;;;2079172;28;20293;-46
2021/03/20 01:45:20;;;;;;;3.60;3.30;;;;;20.60;101719.00;;;;2079126;28;20297;-46
2021/03/20 01:46:40;;;;;;;4.60;4.00;;;;;20.60;101718.00;;;;2078899;28;20212;-46
2021/03/20 01:47:51;;;;;;;4.10;3.70;;;;;20.60;101718.00;;;;2078509;28;20234;-46
2021/03/20 01:48:51;;;;;;;3.97;3.50;;;;;20.60;101716.00;;;;2077964;28;20321;-46
2021/03/20 01:49:52;;;;;;;4.13;3.73;;;;;20.60;101710.00;;;;2078920;28;20551;-46
2021/03/20 01:50:58;;;;;;;4.57;4.07;;;;;20.60;101710.00;;;;2070307;28;20219;-46
2021/03/20 01:52:20;;;;;;;4.50;3.95;;;;;20.60;101708.00;;;;2071047;28;20280;-46
2021/03/20 01:53:38;;;;;;;5.25;4.10;;;;;20.60;101703.00;;;;2078554;28;20218;-46
2021/03/20 01:54:47;;;;;;;3.97;3.50;;;;;20.60;101700.00;;;;2078106;28;20230;-45
2021/03/20 01:55:47;;;;;;;3.50;3.20;;;;;20.50;101705.00;;;;2078774;28;20214;-46
2021/03/20 01:56:48;;;;;;;3.93;3.57;;;;;20.50;101702.00;;;;2079394;28;20715;-46
2021/03/20 01:57:51;;;;;;;3.78;3.45;;;;;20.50;101700.00;;;;2079005;28;20202;-46
2021/03/20 01:58:52;;;;;;;3.90;3.60;;;;;20.50;101692.00;;;;2076967;28;20198;-46
2021/03/20 01:59:52;;;;;;;3.60;3.30;;;;;20.50;101701.00;;;;2074838;28;20217;-46
2021/03/20 02:00:59;;;;;;;3.73;3.43;;;;;20.50;101709.00;;;;2078374;28;20265;-46
2021/03/20 02:01:59;;;;;;;4.32;3.20;;;;;20.50;101700.00;;;;2086210;28;20288;-46
2021/03/20 02:03:02;;;;;;;3.80;3.30;;;;;20.50;101707.00;;;;2086261;28;20621;-46
2021/03/20 02:04:03;;;;;;;3.30;3.00;;;;;20.50;101710.00;;;;2087397;28;20213;-46
2021/03/20 02:05:04;;;;;;;3.77;3.40;;;;;20.50;101714.00;;;;2087248;28;20213;-46
2021/03/20 02:06:05;;;;;;;3.80;3.50;;;;;20.50;101719.00;;;;2087130;28;20232;-46
2021/03/20 02:07:05;;;;;;;3.57;3.27;;;;;20.50;101712.00;;;;2087260;28;20227;-46
2021/03/20 02:08:07;;;;;;;3.53;3.23;;;;;20.50;101719.00;;;;2086532;28;20209;-46
2021/03/20 02:09:08;;;;;;;2.97;2.65;;;;;20.50;101716.00;;;;2076992;28;20587;-48
2021/03/20 02:10:09;;;;;;;2.85;2.65;;;;;20.50;101705.00;;;;2078444;28;20214;-46
2021/03/20 02:11:18;;;;;;;4.10;2.70;;;;;20.50;101709.00;;;;2078485;28;20225;-46
2021/03/20 02:12:37;;;;;;;3.30;3.00;;;;;20.50;101718.00;;;;2087066;28;20271;-46
2021/03/20 02:14:23;;;;;;;3.13;2.83;;;;;20.50;101713.00;;;;2077773;28;20650;-47
2021/03/20 02:15:45;;;;;;;3.45;2.85;;;;;20.50;101719.00;;;;2082642;28;20282;-46
2021/03/20 02:16:57;;;;;;;3.30;2.90;;;;;20.50;101707.00;;;;2087259;28;20213;-46
2021/03/20 02:18:05;;;;;;;3.80;3.03;;;;;20.40;101716.00;;;;2087102;28;20255;-46
2021/03/20 02:19:29;;;;;;;3.25;2.65;;;;;20.40;101706.00;;;;2078552;28;20217;-46
2021/03/20 02:20:45;;;;;;;3.40;2.85;;;;;20.30;101701.00;;;;2087161;28;20303;-46
2021/03/20 02:21:55;;;;;;;2.83;2.53;;;;;20.40;101687.00;;;;2086732;28;20748;-46
2021/03/20 02:23:09;;;;;;;3.17;2.55;;;;;20.40;101702.00;;;;2079866;28;20226;-46
2021/03/20 02:24:27;;;;;;;3.47;2.53;;;;;20.40;101693.00;;;;2086973;28;20205;-46
2021/03/20 02:26:06;;;;;;;2.95;2.50;;;;;20.40;101700.00;;;;2087591;28;20805;-46
2021/03/20 02:27:29;;;;;;;2.60;2.40;;;;;20.40;101696.00;;;;2085270;28;20218;-46
2021/03/20 02:28:50;;;;;;;3.08;2.40;;;;;20.40;101700.00;;;;2078267;28;20341;-46
2021/03/20 02:30:09;;;;;;;3.03;2.70;;;;;20.40;101694.00;;;;2074656;28;20647;-45
2021/03/20 02:31:23;;;;;;;2.60;2.40;;;;;20.40;101703.00;;;;2075139;28;20771;-47
2021/03/20 02:32:35;;;;;;;3.05;2.53;;;;;20.40;101708.00;;;;2078468;28;20237;-46
2021/03/20 02:33:41;;;;;;;2.30;2.10;;;;;20.40;101700.00;;;;2077301;28;20255;-46
2021/03/20 02:34:54;;;;;;;3.22;2.45;;;;;20.40;101705.00;;;;2070886;28;20276;-46
2021/03/20 02:36:20;;;;;;;4.13;2.80;;;;;20.40;101704.00;;;;2078596;28;20206;-46
2021/03/20 02:37:28;;;;;;;2.58;2.22;;;;;20.30;101704.00;;;;2074868;28;20763;-46
2021/03/20 02:38:28;;;;;;;2.42;2.22;;;;;20.30;101702.00;;;;2069518;28;20222;-46
2021/03/20 02:39:33;;;;;;;2.70;2.50;;;;;20.30;101699.00;;;;2070322;28;20219;-46
2021/03/20 02:40:40;;;;;;;3.92;2.45;;;;;20.30;101691.00;;;;2078705;28;20230;-45
2021/03/20 02:42:00;;;;;;;2.53;2.33;;;;;20.40;101700.00;;;;2070391;28;20226;-46
2021/03/20 02:43:53;;;;;;;2.67;2.47;;;;;20.30;101695.00;;;;2070050;28;20230;-46
2021/03/20 02:45:34;;;;;;;2.50;2.30;;;;;20.30;101701.00;;;;2055471;28;20652;-46
2021/03/20 02:46:37;;;;;;;2.10;1.90;;;;;20.30;101702.00;;;;2062099;28;20214;-46
2021/03/20 02:47:58;;;;;;;2.42;2.22;;;;;20.30;101703.00;;;;2062074;28;20306;-46
2021/03/20 02:49:22;;;;;;;2.55;2.33;;;;;20.30;101705.00;;;;2071599;28;20221;-46
2021/03/20 02:50:25;;;;;;;2.35;2.15;;;;;20.30;101704.00;;;;2077767;28;20226;-46
2021/03/20 02:51:50;;;;;;;3.55;2.38;;;;;20.30;101708.00;;;;2077930;28;20879;-46
2021/03/20 02:53:01;;;;;;;2.10;2.00;;;;;20.30;101707.00;;;;2069453;28;20414;-46
2021/03/20 02:54:05;;;;;;;2.85;2.33;;;;;20.30;101724.00;;;;2063061;28;20219;-46
2021/03/20 02:55:08;;;;;;;2.33;2.13;;;;;20.30;101714.00;;;;2062326;28;20219;-46
2021/03/20 02:56:16;;;;;;;2.13;1.92;;;;;20.30;101707.00;;;;2070379;28;20869;-45
2021/03/20 02:57:17;;;;;;;1.90;1.80;;;;;20.30;101715.00;;;;2070235;28;20218;-46
2021/03/20 02:59:12;;;;;;;2.50;2.30;;;;;20.20;101723.00;;;;2076821;28;20303;-46
2021/03/20 03:00:19;;;;;;;2.50;2.30;;;;;20.30;101720.00;;;;2084043;28;20213;-46
2021/03/20 03:01:21;;;;;;;3.72;1.92;;;;;20.30;101718.00;;;;2083274;28;20338;-45
2021/03/20 03:02:22;;;;;;;2.45;2.25;;;;;20.30;101718.00;;;;2077019;28;20218;-46
2021/03/20 03:03:24;;;;;;;2.40;2.10;;;;;20.30;101710.00;;;;2077747;28;20307;-46
2021/03/20 03:04:25;;;;;;;2.10;1.90;;;;;20.30;101714.00;;;;2070181;28;20466;-46
2021/03/20 03:05:37;;;;;;;2.30;2.10;;;;;20.20;101716.00;;;;2077767;28;20393;-46
2021/03/20 03:06:46;;;;;;;2.58;2.10;;;;;20.20;101707.00;;;;2079984;28;20217;-45
2021/03/20 03:07:48;;;;;;;1.77;1.67;;;;;20.20;101711.00;;;;2072100;28;20236;-46
2021/03/20 03:08:53;;;;;;;1.88;1.67;;;;;20.20;101716.00;;;;2077206;28;20218;-46
2021/03/20 03:09:56;;;;;;;2.20;2.00;;;;;20.20;101707.00;;;;2063495;28;20310;-46
2021/03/20 03:11:28;;;;;;;2.63;2.15;;;;;20.20;101708.00;;;;2070976;28;20361;-46
2021/03/20 03:12:32;;;;;;;2.20;2.00;;;;;20.20;101707.00;;;;2080581;28;20257;-46
2021/03/20 03:13:36;;;;;;;2.30;2.10;;;;;20.20;101708.00;;;;2070897;28;20855;-46
2021/03/20 03:14:52;;;;;;;2.42;2.03;;;;;20.20;101701.00;;;;2071039;28;20234;-46
2021/03/20 03:15:56;;;;;;;2.00;1.88;;;;;20.20;101704.00;;;;2080120;28;20212;-46
2021/03/20 03:17:00;;;;;;;1.70;1.60;;;;;20.20;101699.00;;;;2078840;28;20210;-46
2021/03/20 03:18:04;;;;;;;1.98;1.80;;;;;20.20;101704.00;;;;2078712;28;20241;-46
2021/03/20 03:19:08;;;;;;;2.00;1.80;;;;;20.20;101699.00;;;;2077674;28;20206;-46
2021/03/20 03:20:13;;;;;;;1.88;1.77;;;;;20.20;101705.00;;;;2078213;28;20210;-46
2021/03/20 03:21:14;;;;;;;2.15;1.90;;;;;20.20;101703.00;;;;2070396;28;20246;-46
2021/03/20 03:22:35;;;;;;;2.10;1.90;;;;;20.20;101701.00;;;;2070146;28;20694;-46
2021/03/20 03:23:37;;;;;;;2.08;1.70;;;;;20.20;101694.00;;;;2081032;28;20486;-46
2021/03/20 03:24:38;;;;;;;1.90;1.70;;;;;20.20;101700.00;;;;2070362;28;20806;-46
2021/03/20 03:25:41;;;;;;;2.53;1.83;;;;;20.20;101699.00;;;;2070246;28;20237;-46
2021/03/20 03:26:44;;;;;;;1.90;1.80;;;;;20.20;101703.00;;;;2078667;28;20222;-46
2021/03/20 03:27:48;;;;;;;1.55;1.45;;;;;20.20;101710.00;;;;2082579;28;20327;-46
2021/03/20 03:28:51;;;;;;;2.00;1.80;;;;;20.20;101713.00;;;;2076528;28;20198;-46
2021/03/20 03:29:51;;;;;;;1.95;1.73;;;;;20.20;101709.00;;;;2070858;28;20215;-46
2021/03/20 03:30:58;;;;;;;1.90;1.70;;;;;20.20;101699.00;;;;2085546;28;20317;-46
2021/03/20 03:32:19;;;;;;;2.00;1.80;;;;;20.20;101703.00;;;;2086462;28;20757;-45
2021/03/20 03:33:25;;;;;;;2.67;1.70;;;;;20.20;101703.00;;;;2080784;28;20220;-46
2021/03/20 03:34:41;;;;;;;1.40;1.30;;;;;20.20;101717.00;;;;2086045;28;20295;-46
2021/03/20 03:35:43;;;;;;;1.58;1.48;;;;;20.20;101707.00;;;;2085622;28;20225;-46
2021/03/20 03:36:49;;;;;;;2.08;1.88;;;;;20.10;101704.00;;;;2079254;28;20241;-46
2021/03/20 03:38:03;;;;;;;1.63;1.52;;;;;20.10;101709.00;;;;2077035;28;20210;-46
2021/03/20 03:39:15;;;;;;;1.90;1.80;;;;;20.10;101707.00;;;;2072293;28;20229;-46
2021/03/20 03:40:22;;;;;;;2.08;1.65;;;;;20.10;101708.00;;;;2071084;28;20422;-45
2021/03/20 03:41:26;;;;;;;1.63;1.52;;;;;20.10;101716.00;;;;2070902;28;20226;-46
2021/03/20 03:42:27;;;;;;;1.90;1.80;;;;;20.10;101706.00;;;;2077977;28;20288;-46
2021/03/20 03:43:27;;;;;;;1.83;1.73;;;;;20.10;101711.00;;;;2085650;28;20941;-46
2021/03/20 03:44:27;;;;;;;1.90;1.60;;;;;20.10;101708.00;;;;2086612;28;20205;-45
2021/03/20 03:45:28;;;;;;;2.50;1.70;;;;;20.10;101702.00;;;;2086820;28;20271;-46
2021/03/20 03:46:32;;;;;;;1.57;1.47;;;;;20.10;101715.00;;;;2085610;28;20267;-46
2021/03/20 03:47:32;;;;;;;2.00;1.67;;;;;20.10;101718.00;;;;2077891;28;20218;-46
2021/03/20 03:48:33;;;;;;;1.70;1.60;;;;;20.10;101712.00;;;;2076537;28;20225;-46
2021/03/20 03:49:33;;;;;;;2.00;1.80;;;;;20.10;101714.00;;;;2077783;28;20265;-46
2021/03/20 03:50:35;;;;;;;1.60;1.50;;;;;20.10;101726.00;;;;2085987;28;20229;-45
2021/03/20 03:51:36;;;;;;;2.55;1.70;;;;;20.10;101720.00;;;;2086083;28;20294;-46
2021/03/20 03:52:36;;;;;;;1.90;1.80;;;;;20.10;101719.00;;;;2086140;28;20213;-46
2021/03/20 03:53:38;;;;;;;1.60;1.50;;;;;20.10;101718.00;;;;2086316;28;20559;-46
2021/03/20 03:54:38;;;;;;;1.73;1.60;;;;;20.10;101734.00;;;;2086707;28;20872;-46
2021/03/20 03:55:38;;;;;;;1.70;1.50;;;;;20.10;101714.00;;;;2085889;28;20213;-46
2021/03/20 03:57:05;;;;;;;1.53;1.43;;;;;19.70;101729.00;;;;2077462;28;20552;-46
2021/03/20 03:58:32;;;;;;;1.70;1.60;;;;;20.10;101728.00;;;;2067084;28;20714;-46
2021/03/20 04:00:10;;;;;;;2.00;1.50;;;;;20.00;101738.00;;;;2057185;28;20219;-46
2021/03/20 04:01:35;;;;;;;1.50;1.40;;;;;20.00;101735.00;;;;2076226;28;20702;-46
2021/03/20 04:02:51;;;;;;;1.63;1.52;;;;;20.00;101742.00;;;;2078254;28;20698;-46
2021/03/20 04:04:02;;;;;;;3.13;1.67;;;;;20.00;101736.00;;;;2079133;28;20221;-46
2021/03/20 04:05:02;;;;;;;2.03;1.80;;;;;20.00;101738.00;;;;2077785;28;20214;-46
2021/03/20 04:06:18;;;;;;;1.40;1.30;;;;;20.00;101742.00;;;;2077553;28;20228;-46
2021/03/20 04:07:46;;;;;;;1.45;1.33;;;;;20.00;101745.00;;;;2069535;28;20213;-45
2021/03/20 04:08:53;;;;;;;1.92;1.70;;;;;20.00;101742.00;;;;2071537;28;20769;-45
2021/03/20 04:10:07;;;;;;;2.22;1.60;;;;;20.00;101739.00;;;;2069086;28;20261;-46
2021/03/20 04:11:30;;;;;;;1.63;1.52;;;;;20.00;101739.00;;;;2064582;28;20301;-46
2021/03/20 04:12:39;;;;;;;2.28;2.00;;;;;20.00;101732.00;;;;2071876;28;20715;-45
2021/03/20 04:13:53;;;;;;;1.27;1.15;;;;;20.00;101727.00;;;;2070491;28;20715;-45
2021/03/20 04:15:01;;;;;;;1.67;1.50;;;;;20.00;101731.00;;;;2071719;28;20305;-46
2021/03/20 04:16:08;;;;;;;1.70;1.60;;;;;20.00;101729.00;;;;2069893;28;20215;-46
2021/03/20 04:17:31;;;;;;;2.33;1.60;;;;;20.00;101729.00;;;;2077151;28;20222;-46
2021/03/20 04:18:59;;;;;;;1.60;1.40;;;;;20.00;101731.00;;;;2068217;28;20211;-46
2021/03/20 04:20:09;;;;;;;1.73;1.63;;;;;20.00;101727.00;;;;2075123;28;20301;-46
2021/03/20 04:21:23;;;;;;;1.60;1.35;;;;;20.00;101729.00;;;;2078071;28;20241;-46
2021/03/20 04:22:29;;;;;;;1.90;1.73;;;;;19.90;101735.00;;;;2077513;28;20217;-46
2021/03/20 04:23:31;;;;;;;1.45;1.35;;;;;20.00;101728.00;;;;2069205;28;20224;-46
2021/03/20 04:24:34;;;;;;;2.08;1.88;;;;;20.00;101732.00;;;;2070035;28;20730;-46
2021/03/20 04:25:53;;;;;;;1.40;1.30;;;;;20.00;101727.00;;;;2078008;28;20214;-46
2021/03/20 04:27:17;;;;;;;2.53;1.50;;;;;20.00;101722.00;;;;2077889;28;20221;-46
2021/03/20 04:28:36;;;;;;;2.40;1.60;;;;;20.00;101725.00;;;;2071557;28;20221;-46
2021/03/20 04:30:00;;;;;;;2.10;1.58;;;;;20.00;101729.00;;;;2077714;28;20237;-46
2021/03/20 04:31:23;;;;;;;2.35;1.48;;;;;19.90;101721.00;;;;2078446;28;20210;-46
2021/03/20 04:32:25;;;;;;;1.40;1.30;;;;;19.90;101706.00;;;;2077633;28;20229;-45
2021/03/20 04:33:32;;;;;;;1.30;1.20;;;;;19.90;101707.00;;;;2071359;28;20830;-46
2021/03/20 04:34:56;;;;;;;1.90;1.70;;;;;19.90;101723.00;;;;2069828;28;20234;-46
2021/03/20 04:35:58;;;;;;;1.65;1.55;;;;;19.90;101722.00;;;;2068028;28;20560;-46
2021/03/20 04:37:18;;;;;;;1.25;1.15;;;;;19.90;101731.00;;;;2069684;28;20230;-46
2021/03/20 04:38:18;;;;;;;1.38;1.27;;;;;19.90;101732.00;;;;2063248;28;20593;-45
2021/03/20 04:39:21;;;;;;;1.70;1.20;;;;;19.90;101731.00;;;;2061865;28;20223;-46
2021/03/20 04:40:36;;;;;;;2.03;1.48;;;;;19.90;101732.00;;;;2062328;28;20229;-46
2021/03/20 04:41:37;;;;;;;2.25;1.27;;;;;19.90;101725.00;;;;2077748;28;20226;-46
2021/03/20 04:42:37;;;;;;;1.53;1.43;;;;;19.90;101718.00;;;;2069576;28;20723;-46
2021/03/20 04:43:38;;;;;;;1.70;1.60;;;;;19.90;101729.00;;;;2070090;28;20214;-46
2021/03/20 04:44:39;;;;;;;1.77;1.57;;;;;19.90;101725.00;;;;2069606;28;20227;-46
2021/03/20 04:46:01;;;;;;;2.00;1.58;;;;;19.90;101725.00;;;;2069956;28;20730;-45
2021/03/20 04:47:04;;;;;;;1.70;1.60;;;;;19.90;101723.00;;;;2071953;28;20221;-46
2021/03/20 04:48:17;;;;;;;1.35;1.23;;;;;19.90;101723.00;;;;2072682;28;20738;-46
2021/03/20 04:49:27;;;;;;;1.23;1.13;;;;;19.90;101729.00;;;;2077939;28;20202;-46
2021/03/20 04:50:27;;;;;;;1.40;1.30;;;;;19.90;101722.00;;;;2078090;28;20217;-46
2021/03/20 04:51:32;;;;;;;1.87;1.50;;;;;19.90;101726.00;;;;2077700;28;20602;-46
2021/03/20 04:52:38;;;;;;;1.60;1.50;;;;;19.90;101729.00;;;;2061423;28;20262;-46
2021/03/20 04:53:38;;;;;;;2.25;1.60;;;;;19.90;101724.00;;;;2055101;28;20220;-46
2021/03/20 04:54:38;;;;;;;1.50;1.40;;;;;19.90;101728.00;;;;2070407;28;20225;-45
2021/03/20 04:55:39;;;;;;;1.53;1.40;;;;;19.90;101728.00;;;;2080217;28;20213;-46
2021/03/20 04:56:50;;;;;;;2.10;1.40;;;;;19.90;101726.00;;;;2071206;28;20866;-45
2021/03/20 04:57:59;;;;;;;1.70;1.30;;;;;19.90;101727.00;;;;2071279;28;20258;-46
2021/03/20 04:59:01;;;;;;;1.40;1.30;;;;;19.80;101724.00;;;;2069813;28;20604;-46
2021/03/20 05:00:25;;;;;;;3.80;1.52;;;;;19.80;101725.00;;;;2062796;28;20227;-46
2021/03/20 05:01:49;;;;;;;2.20;1.60;;;;;19.80;101726.00;;;;2061595;28;20320;-46
2021/03/20 05:03:14;;;;;;;1.75;1.35;;;;;19.80;101722.00;;;;2057740;28;20223;-45
2021/03/20 05:04:22;;;;;;;1.48;1.33;;;;;19.80;101721.00;;;;2066771;28;20583;-46
2021/03/20 05:05:32;;;;;;;1.90;1.60;;;;;19.80;101728.00;;;;2079454;28;20272;-46
2021/03/20 05:06:33;;;;;;;1.40;1.25;;;;;19.80;101723.00;;;;2062089;28;20350;-46
2021/03/20 05:07:33;;;;;;;1.60;1.50;;;;;19.80;101730.00;;;;2071298;28;20230;-46
2021/03/20 05:08:39;;;;;;;2.40;1.50;;;;;19.80;101726.00;;;;2062199;28;21340;-46
2021/03/20 05:09:39;;;;;;;1.63;1.40;;;;;19.80;101732.00;;;;2056411;28;20208;-46
2021/03/20 05:10:58;;;;;;;2.20;1.43;;;;;19.80;101728.00;;;;2071447;28;20425;-46
2021/03/20 05:11:59;;;;;;;1.90;1.40;;;;;19.80;101724.00;;;;2070967;28;20237;-46
2021/03/20 05:13:00;;;;;;;1.60;1.40;;;;;19.80;101727.00;;;;2071512;28;20373;-45
2021/03/20 05:14:01;;;;;;;1.50;1.40;;;;;19.80;101727.00;;;;2079034;28;20245;-46
2021/03/20 05:15:20;;;;;;;1.35;1.25;;;;;19.80;101727.00;;;;2071115;28;20223;-49
2021/03/20 05:16:27;;;;;;;1.80;1.52;;;;;19.80;101737.00;;;;2071442;28;20730;-46
2021/03/20 05:17:28;;;;;;;1.70;1.60;;;;;19.80;101737.00;;;;2079237;28;20218;-46
2021/03/20 05:18:28;;;;;;;1.40;1.30;;;;;19.80;101733.00;;;;2077897;28;20231;-45
2021/03/20 05:19:29;;;;;;;2.30;1.43;;;;;19.80;101732.00;;;;2071695;28;20211;-46
2021/03/20 05:20:29;;;;;;;1.63;1.30;;;;;19.80;101727.00;;;;2071879;28;20235;-46
2021/03/20 05:21:32;;;;;;;1.43;1.33;;;;;19.80;101731.00;;;;2071071;28;20218;-46
2021/03/20 05:22:32;;;;;;;1.60;1.40;;;;;19.80;101730.00;;;;2071138;28;20211;-46
2021/03/20 05:23:33;;;;;;;1.77;1.20;;;;;19.80;101736.00;;;;2071817;28;20302;-50
2021/03/20 05:24:35;;;;;;;1.67;1.57;;;;;19.80;101734.00;;;;2071792;28;20292;-48
2021/03/20 05:25:36;;;;;;;3.40;1.70;;;;;19.80;101736.00;;;;2070423;28;20225;-45
2021/03/20 05:26:36;;;;;;;2.30;1.50;;;;;19.80;101739.00;;;;2071543;28;20737;-46
2021/03/20 05:27:37;;;;;;;1.60;1.43;;;;;19.80;101747.00;;;;2076553;28;20218;-46